createdAt,value
2023-08-11T00:00:39.736Z,13.56
2023-08-11T00:03:07.930Z,13.58
2023-08-11T00:05:38.627Z,13.61
2023-08-11T00:10:55.102Z,13.47
2023-08-11T00:13:23.356Z,13.45
2023-08-11T00:15:51.121Z,13.43
2023-08-11T00:18:18.941Z,13.45
2023-08-11T00:20:47.942Z,13.44
2023-08-11T00:23:17.111Z,13.40
2023-08-11T00:25:45.465Z,13.43
2023-08-11T00:28:13.163Z,13.41
2023-08-11T00:30:41.296Z,13.43
2023-08-11T00:33:09.095Z,13.43
2023-08-11T00:35:37.303Z,13.34
2023-08-11T00:38:06.052Z,13.26
2023-08-11T00:40:35.250Z,13.19
2023-08-11T00:43:03.397Z,13.10
2023-08-11T00:45:31.502Z,13.14
2023-08-11T00:47:59.974Z,13.13
2023-08-11T00:50:28.435Z,13.15
2023-08-11T00:52:56.817Z,13.16
2023-08-11T00:55:24.604Z,13.13
2023-08-11T00:57:54.122Z,13.15
2023-08-11T01:00:22.461Z,13.13
2023-08-11T01:02:50.723Z,13.07
2023-08-11T01:05:20.289Z,13.05
2023-08-11T01:07:58.296Z,12.97
2023-08-11T01:10:35.210Z,12.96
2023-08-11T01:13:14.436Z,13.01
2023-08-11T01:15:47.377Z,13.04
2023-08-11T01:18:16.559Z,13.01
2023-08-11T01:20:44.672Z,13.00
2023-08-11T01:23:20.460Z,13.03
2023-08-11T01:25:49.121Z,13.00
2023-08-11T01:28:17.098Z,12.98
2023-08-11T01:30:45.432Z,12.98
2023-08-11T01:33:13.246Z,13.03
2023-08-11T01:35:42.583Z,12.99
2023-08-11T01:38:10.964Z,12.96
2023-08-11T01:40:41.350Z,12.95
2023-08-11T01:43:12.461Z,12.95
2023-08-11T01:45:41.422Z,12.94
2023-08-11T01:48:10.796Z,12.87
2023-08-11T01:50:40.200Z,12.86
2023-08-11T01:53:09.010Z,12.85
2023-08-11T01:55:37.759Z,12.86
2023-08-11T01:58:07.620Z,12.83
2023-08-11T02:00:35.839Z,12.84
2023-08-11T02:03:03.973Z,12.83
2023-08-11T02:05:32.101Z,12.76
2023-08-11T02:08:01.386Z,12.78
2023-08-11T02:10:29.315Z,12.81
2023-08-11T02:12:57.531Z,12.76
2023-08-11T02:15:26.851Z,12.73
2023-08-11T02:17:55.313Z,12.62
2023-08-11T02:20:24.549Z,12.66
2023-08-11T02:22:54.322Z,12.68
2023-08-11T02:25:23.138Z,12.71
2023-08-11T02:27:51.314Z,12.76
2023-08-11T02:30:19.813Z,12.69
2023-08-11T02:32:49.093Z,12.66
2023-08-11T02:35:19.034Z,12.69
2023-08-11T02:37:47.195Z,12.69
2023-08-11T02:40:16.156Z,12.67
2023-08-11T02:42:49.597Z,12.65
2023-08-11T02:45:17.742Z,12.69
2023-08-11T02:47:45.497Z,12.74
2023-08-11T02:50:15.505Z,12.77
2023-08-11T02:52:43.592Z,12.84
2023-08-11T02:55:12.481Z,12.89
2023-08-11T02:57:40.607Z,12.94
2023-08-11T03:00:14.322Z,12.94
2023-08-11T03:02:42.765Z,12.93
2023-08-11T03:05:12.915Z,12.95
2023-08-11T03:07:42.934Z,12.97
2023-08-11T03:10:11.426Z,12.99
2023-08-11T03:12:39.612Z,13.02
2023-08-11T03:15:09.372Z,13.01
2023-08-11T03:17:37.908Z,13.03
2023-08-11T03:20:11.789Z,13.03
2023-08-11T03:22:39.914Z,13.08
2023-08-11T03:25:12.034Z,13.08
2023-08-11T03:27:43.706Z,13.12
2023-08-11T03:30:13.141Z,13.08
2023-08-11T03:32:41.476Z,13.17
2023-08-11T03:35:10.159Z,13.16
2023-08-11T03:37:37.914Z,13.13
2023-08-11T03:40:10.620Z,13.08
2023-08-11T03:42:39.700Z,13.10
2023-08-11T03:45:09.003Z,13.16
2023-08-11T03:47:36.791Z,13.22
2023-08-11T03:50:04.799Z,13.26
2023-08-11T03:52:33.262Z,13.26
2023-08-11T03:55:01.068Z,13.25
2023-08-11T03:57:29.232Z,13.24
2023-08-11T03:59:58.585Z,13.25
2023-08-11T04:02:27.623Z,13.30
2023-08-11T04:04:55.439Z,13.30
2023-08-11T04:07:23.557Z,13.31
2023-08-11T04:09:51.311Z,13.38
2023-08-11T04:12:19.084Z,13.38
2023-08-11T04:14:47.138Z,13.36
2023-08-11T04:17:17.669Z,13.36
2023-08-11T04:19:45.874Z,13.37
2023-08-11T04:22:15.962Z,13.41
2023-08-11T04:24:46.789Z,13.46
2023-08-11T04:27:15.327Z,13.51
2023-08-11T04:29:43.079Z,13.48
2023-08-11T04:34:40.351Z,13.56
2023-08-11T04:37:09.895Z,13.53
2023-08-11T04:39:38.138Z,13.52
2023-08-11T04:42:06.898Z,13.44
2023-08-11T04:44:35.321Z,13.47
2023-08-11T04:47:03.356Z,13.51
2023-08-11T04:49:33.007Z,13.46
2023-08-11T04:52:02.139Z,13.45
2023-08-11T04:54:30.310Z,13.40
2023-08-11T04:56:58.272Z,13.39
2023-08-11T04:59:26.530Z,13.46
2023-08-11T05:01:56.404Z,13.48
2023-08-11T05:04:24.485Z,13.50
2023-08-11T05:06:52.342Z,13.60
2023-08-11T05:09:21.970Z,13.66
2023-08-11T05:11:49.700Z,13.69
2023-08-11T05:14:18.848Z,13.73
2023-08-11T05:16:47.062Z,13.77
2023-08-11T05:19:14.845Z,13.83
2023-08-11T05:21:43.028Z,13.86
2023-08-11T05:24:11.483Z,13.88
2023-08-11T05:26:41.187Z,13.94
2023-08-11T05:29:11.890Z,13.96
2023-08-11T05:31:39.980Z,13.95
2023-08-11T05:34:10.805Z,13.90
2023-08-11T05:36:38.655Z,13.93
2023-08-11T05:39:08.180Z,13.96
2023-08-11T05:41:35.922Z,14.01
2023-08-11T05:44:06.050Z,14.08
2023-08-11T05:46:33.887Z,14.12
2023-08-11T05:49:01.654Z,14.16
2023-08-11T05:51:29.955Z,14.23
2023-08-11T05:53:57.722Z,14.30
2023-08-11T05:56:25.799Z,14.38
2023-08-11T05:58:53.591Z,14.38
2023-08-11T06:01:22.950Z,14.44
2023-08-11T06:03:50.870Z,14.58
2023-08-11T06:06:19.348Z,14.70
2023-08-11T06:08:47.560Z,14.83
2023-08-11T06:11:15.376Z,14.87
2023-08-11T06:13:44.239Z,14.90
2023-08-11T06:16:12.064Z,14.92
2023-08-11T06:18:41.702Z,14.96
2023-08-11T06:21:10.196Z,14.98
2023-08-11T06:23:38.533Z,15.02
2023-08-11T06:26:06.994Z,15.08
2023-08-11T06:28:35.260Z,15.15
2023-08-11T06:31:03.642Z,15.25
2023-08-11T06:33:31.963Z,15.29
2023-08-11T06:36:01.086Z,15.31
2023-08-11T06:38:28.890Z,15.37
2023-08-11T06:40:56.846Z,15.42
2023-08-11T06:43:24.580Z,15.48
2023-08-11T06:45:52.718Z,15.51
2023-08-11T06:48:20.509Z,15.55
2023-08-11T06:50:48.582Z,15.63
2023-08-11T06:53:18.184Z,15.69
2023-08-11T06:55:45.908Z,15.73
2023-08-11T06:58:13.985Z,15.79
2023-08-11T07:00:41.683Z,15.87
2023-08-11T07:03:09.775Z,15.91
2023-08-11T07:05:38.276Z,16.08
2023-08-11T07:08:06.945Z,16.11
2023-08-11T07:10:36.113Z,16.18
2023-08-11T07:13:04.383Z,16.19
2023-08-11T07:15:32.104Z,16.27
2023-08-11T07:18:00.215Z,16.31
2023-08-11T07:20:28.009Z,16.33
2023-08-11T07:22:55.761Z,16.35
2023-08-11T07:25:23.812Z,16.41
2023-08-11T07:27:52.844Z,16.46
2023-08-11T07:30:21.059Z,16.54
2023-08-11T07:32:48.820Z,16.60
2023-08-11T07:35:17.005Z,16.63
2023-08-11T07:37:44.749Z,16.66
2023-08-11T07:40:13.981Z,16.88
2023-08-11T07:42:42.085Z,16.86
2023-08-11T07:45:11.831Z,16.98
2023-08-11T07:47:39.886Z,16.96
2023-08-11T07:50:08.856Z,17.03
2023-08-11T07:52:36.884Z,17.12
2023-08-11T07:55:05.546Z,17.08
2023-08-11T07:57:33.784Z,17.10
2023-08-11T08:00:01.599Z,17.12
2023-08-11T08:02:31.030Z,17.14
2023-08-11T08:05:09.956Z,17.23
2023-08-11T08:07:40.359Z,17.34
2023-08-11T08:10:09.632Z,17.42
2023-08-11T08:12:38.942Z,17.48
2023-08-11T08:15:08.575Z,17.59
2023-08-11T08:17:38.597Z,17.67
2023-08-11T08:20:10.242Z,17.68
2023-08-11T08:22:38.253Z,17.73
2023-08-11T08:25:08.184Z,17.77
2023-08-11T08:27:36.345Z,17.98
2023-08-11T08:30:06.142Z,18.04
2023-08-11T08:32:34.759Z,18.16
2023-08-11T08:35:04.287Z,18.30
2023-08-11T08:37:32.959Z,18.46
2023-08-11T08:40:01.664Z,18.63
2023-08-11T08:42:30.937Z,18.68
2023-08-11T08:44:59.161Z,18.71
2023-08-11T08:47:27.858Z,18.73
2023-08-11T08:49:56.744Z,18.82
2023-08-11T08:52:26.436Z,18.94
2023-08-11T08:54:54.272Z,19.05
2023-08-11T08:57:23.185Z,19.26
2023-08-11T08:59:51.321Z,19.44
2023-08-11T09:02:20.124Z,19.74
2023-08-11T09:04:49.407Z,19.87
2023-08-11T09:07:20.220Z,20.05
2023-08-11T09:09:50.170Z,20.18
2023-08-11T09:12:18.104Z,20.26
2023-08-11T09:14:46.544Z,20.28
2023-08-11T09:17:14.772Z,20.51
2023-08-11T09:19:45.517Z,20.52
2023-08-11T09:22:13.303Z,20.58
2023-08-11T09:24:41.929Z,20.62
2023-08-11T09:27:12.699Z,20.75
2023-08-11T09:29:40.430Z,20.84
2023-08-11T09:32:09.212Z,20.98
2023-08-11T09:34:40.743Z,21.17
2023-08-11T09:37:08.823Z,21.27
2023-08-11T09:39:38.158Z,21.54
2023-08-11T09:42:06.326Z,21.65
2023-08-11T09:44:35.900Z,21.68
2023-08-11T09:47:15.407Z,21.54
2023-08-11T09:49:45.584Z,21.71
2023-08-11T09:52:14.100Z,21.82
2023-08-11T09:54:44.940Z,21.76
2023-08-11T09:57:15.684Z,21.60
2023-08-11T09:59:47.685Z,21.42
2023-08-11T10:02:23.374Z,21.54
2023-08-11T10:04:58.268Z,21.34
2023-08-11T10:07:35.619Z,21.23
2023-08-11T10:10:09.205Z,21.15
2023-08-11T10:12:42.031Z,21.17
2023-08-11T10:15:12.791Z,21.18
2023-08-11T10:17:40.960Z,21.15
2023-08-11T10:20:11.268Z,21.20
2023-08-11T10:22:39.100Z,21.41
2023-08-11T10:25:08.803Z,21.70
2023-08-11T10:27:38.897Z,21.91
2023-08-11T10:30:09.728Z,22.03
2023-08-11T10:32:40.838Z,22.11
2023-08-11T10:35:08.790Z,22.25
2023-08-11T10:37:37.198Z,22.45
2023-08-11T10:40:07.314Z,22.36
2023-08-11T10:42:37.630Z,22.49
2023-08-11T10:45:10.627Z,22.55
2023-08-11T10:47:40.474Z,22.62
2023-08-11T10:50:10.875Z,22.58
2023-08-11T10:52:38.870Z,22.61
2023-08-11T10:55:07.705Z,22.76
2023-08-11T10:57:36.726Z,22.90
2023-08-11T11:00:05.071Z,23.10
2023-08-11T11:02:36.798Z,23.28
2023-08-11T11:05:08.940Z,23.41
2023-08-11T11:07:40.016Z,23.40
2023-08-11T11:10:09.810Z,23.54
2023-08-11T11:12:37.488Z,23.61
2023-08-11T11:15:06.572Z,23.51
2023-08-11T11:17:34.453Z,23.58
2023-08-11T11:20:03.676Z,23.62
2023-08-11T11:22:33.326Z,23.63
2023-08-11T11:25:03.870Z,23.83
2023-08-11T11:27:32.640Z,23.82
2023-08-11T11:30:00.545Z,23.94
2023-08-11T11:32:29.185Z,23.91
2023-08-11T11:34:57.369Z,24.03
2023-08-11T11:37:26.210Z,24.01
2023-08-11T11:39:56.360Z,24.13
2023-08-11T11:42:24.065Z,24.24
2023-08-11T11:44:52.292Z,24.33
2023-08-11T11:47:20.142Z,24.36
2023-08-11T11:49:55.660Z,24.39
2023-08-11T11:52:23.596Z,24.24
2023-08-11T11:54:53.014Z,24.34
2023-08-11T11:57:23.338Z,24.52
2023-08-11T11:59:51.997Z,24.60
2023-08-11T12:02:21.908Z,24.68
2023-08-11T12:04:52.946Z,24.85
2023-08-11T12:07:32.094Z,24.77
2023-08-11T12:10:00.519Z,24.73
2023-08-11T12:12:30.403Z,24.64
2023-08-11T12:15:03.385Z,24.66
2023-08-11T12:17:32.634Z,24.77
2023-08-11T12:20:02.398Z,24.94
2023-08-11T12:22:30.472Z,24.99
2023-08-11T12:24:58.189Z,24.92
2023-08-11T12:27:26.738Z,25.00
2023-08-11T12:29:55.930Z,25.01
2023-08-11T12:32:24.465Z,25.05
2023-08-11T12:34:52.587Z,25.13
2023-08-11T12:37:20.749Z,25.21
2023-08-11T12:39:48.481Z,25.25
2023-08-11T12:42:16.590Z,25.29
2023-08-11T12:44:44.288Z,25.27
2023-08-11T12:47:13.653Z,25.32
2023-08-11T12:49:41.473Z,25.33
2023-08-11T12:52:09.825Z,25.16
2023-08-11T12:54:37.763Z,25.15
2023-08-11T12:57:06.283Z,25.17
2023-08-11T12:59:34.659Z,25.23
2023-08-11T13:02:02.810Z,25.29
2023-08-11T13:04:31.944Z,25.36
2023-08-11T13:07:01.008Z,25.44
2023-08-11T13:09:29.169Z,25.43
2023-08-11T13:11:57.409Z,25.43
2023-08-11T13:14:25.097Z,25.37
2023-08-11T13:16:53.105Z,25.39
2023-08-11T13:19:21.199Z,25.44
2023-08-11T13:21:50.289Z,25.56
2023-08-11T13:24:21.065Z,25.72
2023-08-11T13:26:49.201Z,25.70
2023-08-11T13:29:17.336Z,25.61
2023-08-11T13:31:45.023Z,25.61
2023-08-11T13:34:13.146Z,25.51
2023-08-11T13:36:43.285Z,25.56
2023-08-11T13:39:14.113Z,25.60
2023-08-11T13:41:42.654Z,25.68
2023-08-11T13:44:12.937Z,25.57
2023-08-11T13:46:40.822Z,25.66
2023-08-11T13:49:09.311Z,25.64
2023-08-11T13:51:37.093Z,25.69
2023-08-11T13:54:06.637Z,25.80
2023-08-11T13:56:35.927Z,25.86
2023-08-11T13:59:04.364Z,25.87
2023-08-11T14:01:32.638Z,25.85
2023-08-11T14:04:00.763Z,25.80
2023-08-11T14:06:28.453Z,25.85
2023-08-11T14:08:56.522Z,25.85
2023-08-11T14:11:25.368Z,25.88
2023-08-11T14:13:54.915Z,25.80
2023-08-11T14:16:22.692Z,25.79
2023-08-11T14:18:51.745Z,25.68
2023-08-11T14:21:20.434Z,25.65
2023-08-11T14:23:48.983Z,25.65
2023-08-11T14:26:17.617Z,25.70
2023-08-11T14:28:45.775Z,25.76
2023-08-11T14:31:14.824Z,25.79
2023-08-11T14:33:42.684Z,25.82
2023-08-11T14:36:13.448Z,25.83
2023-08-11T14:38:42.120Z,25.90
2023-08-11T14:41:10.387Z,25.94
2023-08-11T14:43:38.088Z,25.86
2023-08-11T14:46:06.265Z,25.90
2023-08-11T14:48:35.473Z,25.95
2023-08-11T14:51:03.608Z,25.93
2023-08-11T14:53:31.786Z,25.91
2023-08-11T14:56:00.115Z,25.77
2023-08-11T14:58:27.861Z,25.81
2023-08-11T15:00:57.153Z,25.81
2023-08-11T15:03:25.300Z,25.81
2023-08-11T15:05:55.010Z,25.83
2023-08-11T15:08:22.823Z,25.84
2023-08-11T15:10:51.244Z,25.84
2023-08-11T15:13:18.980Z,25.82
2023-08-11T15:15:47.147Z,25.89
2023-08-11T15:18:14.907Z,25.73
2023-08-11T15:20:43.189Z,25.63
2023-08-11T15:23:12.317Z,25.56
2023-08-11T15:25:42.561Z,25.66
2023-08-11T15:28:11.431Z,25.68
2023-08-11T15:30:39.605Z,25.63
2023-08-11T15:33:07.619Z,25.67
2023-08-11T15:35:38.634Z,25.56
2023-08-11T15:38:07.031Z,25.45
2023-08-11T15:40:36.505Z,25.34
2023-08-11T15:43:04.449Z,25.27
2023-08-11T15:45:32.575Z,25.23
2023-08-11T15:48:00.338Z,25.19
2023-08-11T15:50:28.505Z,25.10
2023-08-11T15:52:56.262Z,25.04
2023-08-11T15:55:35.745Z,25.04
2023-08-11T15:58:06.231Z,25.08
2023-08-11T16:00:34.110Z,24.85
2023-08-11T16:03:02.349Z,24.80
2023-08-11T16:05:30.111Z,24.74
2023-08-11T16:07:58.130Z,24.69
2023-08-11T16:10:27.463Z,24.60
2023-08-11T16:12:55.707Z,24.60
2023-08-11T16:15:25.047Z,24.58
2023-08-11T16:17:55.036Z,24.56
2023-08-11T16:20:23.287Z,24.55
2023-08-11T16:22:53.500Z,24.44
2023-08-11T16:25:21.699Z,24.45
2023-08-11T16:27:49.897Z,24.39
2023-08-11T16:30:17.610Z,24.36
2023-08-11T16:32:47.204Z,24.28
2023-08-11T16:35:15.045Z,24.26
2023-08-11T16:37:43.310Z,24.22
2023-08-11T16:40:12.751Z,24.20
2023-08-11T16:42:41.061Z,24.17
2023-08-11T16:45:09.525Z,24.09
2023-08-11T16:47:37.850Z,24.05
2023-08-11T16:50:08.070Z,24.03
2023-08-11T16:52:36.254Z,24.08
2023-08-11T16:55:04.583Z,24.08
2023-08-11T16:57:32.629Z,24.07
2023-08-11T17:00:00.471Z,24.04
2023-08-11T17:02:29.083Z,23.98
2023-08-11T17:04:56.930Z,23.94
2023-08-11T17:07:26.368Z,23.94
2023-08-11T17:09:54.078Z,23.92
2023-08-11T17:12:22.762Z,23.84
2023-08-11T17:14:51.607Z,23.74
2023-08-11T17:17:19.644Z,23.62
2023-08-11T17:19:47.479Z,23.56
2023-08-11T17:22:15.274Z,23.55
2023-08-11T17:24:45.131Z,23.53
2023-08-11T17:27:12.968Z,23.43
2023-08-11T17:29:42.862Z,23.38
2023-08-11T17:32:10.776Z,23.31
2023-08-11T17:34:54.113Z,23.24
2023-08-11T17:37:25.427Z,23.14
2023-08-11T17:39:55.488Z,23.06
2023-08-11T17:42:23.213Z,23.01
2023-08-11T17:44:51.337Z,22.94
2023-08-11T17:47:19.036Z,22.84
2023-08-11T17:49:47.230Z,22.81
2023-08-11T17:52:14.960Z,22.71
2023-08-11T17:54:43.147Z,22.62
2023-08-11T17:57:12.242Z,22.59
2023-08-11T17:59:40.348Z,22.56
2023-08-11T18:02:08.301Z,22.51
2023-08-11T18:04:37.363Z,22.47
2023-08-11T18:07:05.421Z,22.35
2023-08-11T18:09:33.486Z,22.25
2023-08-11T18:12:01.180Z,22.15
2023-08-11T18:14:32.912Z,22.14
2023-08-11T18:17:00.738Z,22.07
2023-08-11T18:19:29.033Z,22.01
2023-08-11T18:21:56.743Z,22.00
2023-08-11T18:24:24.983Z,21.95
2023-08-11T18:26:52.719Z,21.87
2023-08-11T18:29:20.972Z,21.78
2023-08-11T18:31:50.111Z,21.71
2023-08-11T18:34:18.291Z,21.63
2023-08-11T18:36:45.992Z,21.59
2023-08-11T18:39:14.397Z,21.47
2023-08-11T18:41:42.188Z,21.37
2023-08-11T18:44:09.945Z,21.32
2023-08-11T18:46:38.348Z,21.23
2023-08-11T18:49:07.868Z,21.18
2023-08-11T18:51:36.000Z,21.11
2023-08-11T18:54:03.864Z,21.11
2023-08-11T18:56:32.091Z,21.09
2023-08-11T18:58:59.842Z,21.03
2023-08-11T19:01:28.178Z,20.96
2023-08-11T19:03:56.286Z,21.04
2023-08-11T19:06:25.955Z,20.91
2023-08-11T19:08:53.726Z,20.85
2023-08-11T19:11:24.007Z,20.84
2023-08-11T19:13:51.807Z,20.78
2023-08-11T19:16:19.996Z,20.67
2023-08-11T19:18:48.539Z,20.60
2023-08-11T19:21:16.628Z,20.55
2023-08-11T19:23:45.783Z,20.55
2023-08-11T19:26:13.886Z,20.47
2023-08-11T19:28:41.711Z,20.43
2023-08-11T19:31:09.892Z,20.41
2023-08-11T19:33:37.692Z,20.32
2023-08-11T19:36:06.009Z,20.30
2023-08-11T19:38:33.812Z,20.28
2023-08-11T19:41:04.909Z,20.25
2023-08-11T19:43:32.618Z,20.20
2023-08-11T19:46:00.928Z,20.13
2023-08-11T19:48:28.753Z,20.09
2023-08-11T19:50:57.763Z,19.98
2023-08-11T19:53:25.489Z,19.96
2023-08-11T19:55:55.335Z,19.88
2023-08-11T19:58:25.544Z,19.90
2023-08-11T20:00:53.388Z,19.93
2023-08-11T20:03:21.543Z,19.86
2023-08-11T20:05:50.281Z,19.77
2023-08-11T20:08:18.396Z,19.75
2023-08-11T20:10:46.974Z,19.74
2023-08-11T20:13:15.388Z,19.73
2023-08-11T20:15:44.552Z,19.75
2023-08-11T20:18:12.837Z,19.73
2023-08-11T20:20:41.945Z,19.71
2023-08-11T20:23:11.902Z,19.68
2023-08-11T20:25:39.637Z,19.66
2023-08-11T20:28:08.026Z,19.61
2023-08-11T20:30:37.142Z,19.59
2023-08-11T20:33:06.790Z,19.52
2023-08-11T20:35:34.548Z,19.49
2023-08-11T20:38:02.732Z,19.47
2023-08-11T20:40:33.363Z,19.44
2023-08-11T20:43:01.692Z,19.41
2023-08-11T20:45:31.123Z,19.46
2023-08-11T20:48:01.453Z,19.39
2023-08-11T20:50:30.872Z,19.39
2023-08-11T20:52:58.999Z,19.37
2023-08-11T20:55:26.692Z,19.43
2023-08-11T20:57:54.900Z,19.40
2023-08-11T21:00:23.564Z,19.37
2023-08-11T21:02:52.065Z,19.31
2023-08-11T21:05:19.869Z,19.31
2023-08-11T21:07:49.285Z,19.30
2023-08-11T21:10:16.996Z,19.29
2023-08-11T21:12:45.025Z,19.25
2023-08-11T21:15:14.483Z,19.18
2023-08-11T21:17:42.211Z,19.14
2023-08-11T21:20:11.150Z,19.13
2023-08-11T21:22:38.918Z,19.11
2023-08-11T21:25:09.414Z,19.08
2023-08-11T21:27:36.962Z,19.00
2023-08-11T21:30:05.540Z,18.99
2023-08-11T21:32:33.348Z,18.99
2023-08-11T21:35:01.529Z,18.96
2023-08-11T21:37:29.316Z,18.93
2023-08-11T21:39:57.389Z,18.92
2023-08-11T21:42:26.451Z,18.94
2023-08-11T21:44:54.734Z,18.95
2023-08-11T21:47:23.984Z,18.89
2023-08-11T21:49:52.133Z,18.85
2023-08-11T21:52:19.861Z,18.82
2023-08-11T21:54:48.013Z,18.84
2023-08-11T21:57:15.803Z,18.88
2023-08-11T21:59:45.341Z,18.87
2023-08-11T22:02:13.044Z,18.86
2023-08-11T22:04:42.374Z,18.84
2023-08-11T22:07:10.509Z,18.76
2023-08-11T22:09:38.900Z,18.72
2023-08-11T22:12:07.623Z,18.73
2023-08-11T22:14:36.075Z,18.73
2023-08-11T22:17:05.463Z,18.70
2023-08-11T22:19:36.778Z,18.70
2023-08-11T22:22:05.336Z,18.67
2023-08-11T22:24:41.299Z,18.63
2023-08-11T22:27:10.807Z,18.65
2023-08-11T22:29:39.445Z,18.61
2023-08-11T22:32:08.619Z,18.56
2023-08-11T22:34:36.424Z,18.51
2023-08-11T22:37:04.613Z,18.47
2023-08-11T22:39:32.364Z,18.47
2023-08-11T22:42:00.529Z,18.45
2023-08-11T22:44:28.266Z,18.41
2023-08-11T22:46:56.397Z,18.37
2023-08-11T22:49:25.472Z,18.34
2023-08-11T22:51:52.641Z,18.34
2023-08-11T22:54:20.360Z,18.29
2023-08-11T22:56:48.466Z,18.30
2023-08-11T22:59:16.356Z,18.27
2023-08-11T23:01:44.423Z,18.22
2023-08-11T23:04:12.384Z,18.23
2023-08-11T23:06:41.883Z,18.20
2023-08-11T23:09:09.668Z,18.19
2023-08-11T23:11:37.867Z,18.18
2023-08-11T23:14:05.784Z,18.20
2023-08-11T23:16:34.313Z,18.17
2023-08-11T23:19:02.215Z,18.12
2023-08-11T23:21:32.008Z,18.12
2023-08-11T23:24:01.088Z,18.10
2023-08-11T23:26:29.325Z,18.09
2023-08-11T23:28:57.015Z,18.09
2023-08-11T23:31:25.129Z,18.06
2023-08-11T23:33:52.854Z,18.08
2023-08-11T23:36:20.926Z,18.09
2023-08-11T23:38:49.141Z,18.08
2023-08-11T23:41:18.986Z,18.05
2023-08-11T23:43:46.725Z,17.99
2023-08-11T23:46:15.568Z,17.95
2023-08-11T23:48:43.903Z,17.92
2023-08-11T23:51:11.682Z,17.93
2023-08-11T23:53:39.960Z,17.93
2023-08-11T23:56:07.861Z,17.90
2023-08-11T23:58:37.357Z,17.89
